createdAt,value
2023-02-25T00:01:33.744Z,53.65
2023-02-25T00:04:00.254Z,51.65
2023-02-25T00:06:26.848Z,51.38
2023-02-25T00:08:54.318Z,55.42
2023-02-25T00:11:22.704Z,53.20
2023-02-25T00:13:49.501Z,55.28
2023-02-25T00:16:17.419Z,52.28
2023-02-25T00:18:46.964Z,49.53
2023-02-25T00:21:16.256Z,50.40
2023-02-25T00:23:45.071Z,55.90
2023-02-25T00:26:12.344Z,54.88
2023-02-25T00:28:42.920Z,57.80
2023-02-25T00:31:19.480Z,56.67
2023-02-25T00:33:46.152Z,54.65
2023-02-25T00:36:23.143Z,53.97
2023-02-25T00:38:51.636Z,54.42
2023-02-25T00:41:20.488Z,55.63
2023-02-25T00:43:52.680Z,56.63
2023-02-25T00:46:20.019Z,54.80
2023-02-25T00:48:46.638Z,53.97
2023-02-25T00:51:17.802Z,55.78
2023-02-25T00:53:44.991Z,57.53
2023-02-25T00:56:17.155Z,55.60
2023-02-25T00:58:45.223Z,54.17
2023-02-25T01:01:20.211Z,55.88
2023-02-25T01:03:47.801Z,55.88
2023-02-25T01:06:14.384Z,53.97
2023-02-25T01:08:40.961Z,53.78
2023-02-25T01:11:12.304Z,53.40
2023-02-25T01:16:11.617Z,50.60
2023-02-25T01:18:38.110Z,50.28
2023-02-25T01:21:04.967Z,47.25
2023-02-25T01:23:31.390Z,50.70
2023-02-25T01:25:57.806Z,50.42
2023-02-25T01:28:24.264Z,52.42
2023-02-25T01:30:50.780Z,51.88
2023-02-25T01:33:17.277Z,50.40
2023-02-25T01:35:43.687Z,52.65
2023-02-25T01:38:10.100Z,52.20
2023-02-25T01:40:37.801Z,51.17
2023-02-25T01:43:07.681Z,53.10
2023-02-25T01:45:34.567Z,54.58
2023-02-25T01:48:13.544Z,54.10
2023-02-25T01:50:45.504Z,51.30
2023-02-25T01:53:13.080Z,51.13
2023-02-25T01:55:40.772Z,54.00
2023-02-25T01:58:09.282Z,51.83
2023-02-25T02:00:36.219Z,52.25
2023-02-25T02:03:05.757Z,49.88
2023-02-25T02:05:53.990Z,51.42
2023-02-25T02:08:20.787Z,51.85
2023-02-25T02:10:47.168Z,50.25
2023-02-25T02:13:13.610Z,49.88
2023-02-25T02:15:49.082Z,50.63
2023-02-25T02:18:17.998Z,51.47
2023-02-25T02:21:12.313Z,45.35
2023-02-25T02:23:59.146Z,45.03
2023-02-25T02:26:52.186Z,47.22
2023-02-25T02:29:40.473Z,49.58
2023-02-25T02:32:56.171Z,46.28
2023-02-25T02:35:35.344Z,44.50
2023-02-25T02:38:04.728Z,45.65
2023-02-25T02:40:56.509Z,44.58
2023-02-25T02:43:45.055Z,45.00
2023-02-25T02:46:21.827Z,46.00
2023-02-25T02:49:18.011Z,50.15
2023-02-25T02:52:00.168Z,50.40
2023-02-25T02:54:35.251Z,46.55
2023-02-25T02:57:03.804Z,48.35
2023-02-25T02:59:35.209Z,47.08
2023-02-25T03:04:39.120Z,43.75
2023-02-25T03:07:10.309Z,45.72
2023-02-25T03:09:42.711Z,44.38
2023-02-25T03:12:09.368Z,46.50
2023-02-25T03:14:39.056Z,48.50
2023-02-25T03:17:11.351Z,50.40
2023-02-25T03:19:52.964Z,47.47
2023-02-25T03:25:14.547Z,53.00
2023-02-25T03:27:45.129Z,46.08
2023-02-25T03:30:37.675Z,48.57
2023-02-25T03:33:11.408Z,45.55
2023-02-25T03:35:40.308Z,49.72
2023-02-25T03:38:13.736Z,50.80
2023-02-25T03:40:42.530Z,46.53
2023-02-25T03:43:15.086Z,47.80
2023-02-25T03:45:43.713Z,46.00
2023-02-25T03:48:12.129Z,49.30
2023-02-25T03:50:47.859Z,45.78
2023-02-25T03:53:14.415Z,49.10
2023-02-25T03:55:40.954Z,48.38
2023-02-25T03:58:09.187Z,47.88
2023-02-25T04:00:37.483Z,43.80
2023-02-25T04:03:05.236Z,47.50
2023-02-25T04:05:32.122Z,46.85
2023-02-25T04:07:59.438Z,45.20
2023-02-25T04:10:26.266Z,46.35
2023-02-25T04:12:52.692Z,47.20
2023-02-25T04:15:20.855Z,45.97
2023-02-25T04:17:47.408Z,49.05
2023-02-25T04:20:16.377Z,50.05
2023-02-25T04:22:43.316Z,47.20
2023-02-25T04:25:09.923Z,46.75
2023-02-25T04:27:36.407Z,44.50
2023-02-25T04:30:03.067Z,48.40
2023-02-25T04:32:29.581Z,45.08
2023-02-25T04:34:57.612Z,47.22
2023-02-25T04:37:24.019Z,47.22
2023-02-25T04:39:50.457Z,48.63
2023-02-25T04:42:18.027Z,49.35
2023-02-25T04:44:44.468Z,45.45
2023-02-25T04:47:10.897Z,47.78
2023-02-25T04:49:44.685Z,43.97
2023-02-25T04:52:12.778Z,45.78
2023-02-25T04:54:39.275Z,44.05
2023-02-25T04:57:06.825Z,41.70
2023-02-25T04:59:33.516Z,46.80
2023-02-25T05:02:00.628Z,45.17
2023-02-25T05:04:27.210Z,44.63
2023-02-25T05:06:53.630Z,44.88
2023-02-25T05:09:21.197Z,45.80
2023-02-25T05:11:47.641Z,42.42
2023-02-25T05:14:14.061Z,41.67
2023-02-25T05:16:40.604Z,45.90
2023-02-25T05:19:07.090Z,39.83
2023-02-25T05:21:33.583Z,40.58
2023-02-25T05:23:59.991Z,32.17
2023-02-25T05:26:26.659Z,31.88
2023-02-25T05:28:55.493Z,32.33
2023-02-25T05:31:23.516Z,34.28
2023-02-25T05:33:50.355Z,37.65
2023-02-25T05:36:17.897Z,33.15
2023-02-25T05:38:45.276Z,33.58
2023-02-25T05:41:12.884Z,37.15
2023-02-25T05:43:39.973Z,35.17
2023-02-25T05:46:11.655Z,34.10
2023-02-25T05:48:40.217Z,35.05
2023-02-25T05:51:10.415Z,34.60
2023-02-25T05:53:37.556Z,35.75
2023-02-25T05:56:06.313Z,36.70
2023-02-25T05:58:32.945Z,39.58
2023-02-25T06:00:59.814Z,35.92
2023-02-25T06:03:26.531Z,38.85
2023-02-25T06:05:53.428Z,37.03
2023-02-25T06:08:19.905Z,37.90
2023-02-25T06:10:46.324Z,36.08
2023-02-25T06:13:12.777Z,35.45
2023-02-25T06:15:41.503Z,36.58
2023-02-25T06:18:09.266Z,38.03
2023-02-25T06:20:35.699Z,43.97
2023-02-25T06:23:03.322Z,41.45
2023-02-25T06:25:32.209Z,38.08
2023-02-25T06:28:02.893Z,37.92
2023-02-25T06:30:30.851Z,36.00
2023-02-25T06:32:57.975Z,37.00
2023-02-25T06:35:25.075Z,34.90
2023-02-25T06:37:59.279Z,37.45
2023-02-25T06:40:26.777Z,40.67
2023-02-25T06:42:53.255Z,39.50
2023-02-25T06:45:19.847Z,34.00
2023-02-25T06:47:46.312Z,38.47
2023-02-25T06:50:13.444Z,37.10
2023-02-25T06:52:40.465Z,40.25
2023-02-25T06:55:07.487Z,41.95
2023-02-25T06:57:34.753Z,39.85
2023-02-25T07:00:01.289Z,41.97
2023-02-25T07:02:27.891Z,40.58
2023-02-25T07:04:54.940Z,42.55
2023-02-25T07:07:22.091Z,45.20
2023-02-25T07:09:48.565Z,48.17
2023-02-25T07:12:15.173Z,43.65
2023-02-25T07:14:41.763Z,46.20
2023-02-25T07:17:08.198Z,46.90
2023-02-25T07:19:34.662Z,53.97
2023-02-25T07:22:01.270Z,46.88
2023-02-25T07:24:27.900Z,48.28
2023-02-25T07:26:55.530Z,45.58
2023-02-25T07:29:22.483Z,51.83
2023-02-25T07:31:49.315Z,48.25
2023-02-25T07:34:15.929Z,47.45
2023-02-25T07:36:42.448Z,49.22
2023-02-25T07:39:11.410Z,46.88
2023-02-25T07:41:38.744Z,45.60
2023-02-25T07:44:06.791Z,45.08
2023-02-25T07:46:33.630Z,47.50
2023-02-25T07:49:00.365Z,42.72
2023-02-25T07:51:27.229Z,47.70
2023-02-25T07:53:55.755Z,49.15
2023-02-25T07:56:24.100Z,47.78
2023-02-25T07:58:50.865Z,54.10
2023-02-25T08:01:26.558Z,63.13
2023-02-25T08:03:55.554Z,62.60
2023-02-25T08:06:22.861Z,65.05
2023-02-25T08:08:52.414Z,65.60
2023-02-25T08:11:21.650Z,63.50
2023-02-25T08:13:50.583Z,61.45
2023-02-25T08:16:20.050Z,60.75
2023-02-25T08:18:47.738Z,66.22
2023-02-25T08:21:17.895Z,61.33
2023-02-25T08:23:44.436Z,56.35
2023-02-25T08:26:10.922Z,53.72
2023-02-25T08:28:37.488Z,53.50
2023-02-25T08:31:08.448Z,57.15
2023-02-25T08:33:35.298Z,55.70
2023-02-25T08:36:29.503Z,52.72
2023-02-25T08:38:57.576Z,55.83
2023-02-25T08:41:25.940Z,52.20
2023-02-25T08:43:54.880Z,55.65
2023-02-25T08:46:27.049Z,51.33
2023-02-25T08:48:54.309Z,53.15
2023-02-25T08:51:23.382Z,57.63
2023-02-25T08:53:50.665Z,55.13
2023-02-25T08:56:17.917Z,59.42
2023-02-25T08:58:44.689Z,55.72
2023-02-25T09:01:15.036Z,54.30
2023-02-25T09:03:51.327Z,56.22
2023-02-25T09:06:27.616Z,56.03
2023-02-25T09:08:55.308Z,53.53
2023-02-25T09:11:23.137Z,55.70
2023-02-25T09:13:49.726Z,52.20
2023-02-25T09:16:17.521Z,56.38
2023-02-25T09:18:46.158Z,54.63
2023-02-25T09:21:13.744Z,54.38
2023-02-25T09:23:40.907Z,57.38
2023-02-25T09:26:07.894Z,55.88
2023-02-25T09:28:35.314Z,56.05
2023-02-25T09:31:04.679Z,59.10
2023-02-25T09:33:32.329Z,53.45
2023-02-25T09:36:19.440Z,54.60
2023-02-25T09:38:47.192Z,51.35
2023-02-25T09:41:38.108Z,55.50
2023-02-25T09:44:19.875Z,53.58
2023-02-25T09:46:55.965Z,51.15
2023-02-25T09:49:55.949Z,52.72
2023-02-25T09:52:34.757Z,52.03
2023-02-25T09:55:09.448Z,48.85
2023-02-25T09:57:41.533Z,48.13
2023-02-25T10:00:18.622Z,48.17
2023-02-25T10:02:57.203Z,42.25
2023-02-25T10:06:05.395Z,43.38
2023-02-25T10:08:45.210Z,44.17
2023-02-25T10:11:18.908Z,39.35
2023-02-25T10:13:54.730Z,43.20
2023-02-25T10:16:41.685Z,38.88
2023-02-25T10:19:13.957Z,37.90
2023-02-25T10:22:03.187Z,33.97
2023-02-25T10:24:48.559Z,32.47
2023-02-25T10:27:26.473Z,35.58
2023-02-25T10:29:56.983Z,34.78
2023-02-25T10:32:27.149Z,31.97
2023-02-25T10:34:59.892Z,33.63
2023-02-25T10:37:35.049Z,33.00
2023-02-25T10:40:04.993Z,28.55
2023-02-25T10:42:31.698Z,31.45
2023-02-25T10:45:08.172Z,28.50
2023-02-25T10:47:38.039Z,29.23
2023-02-25T10:50:27.617Z,27.90
2023-02-25T10:52:59.247Z,29.58
2023-02-25T10:55:30.567Z,29.02
2023-02-25T11:00:30.796Z,28.48
2023-02-25T11:03:01.219Z,28.27
2023-02-25T11:05:36.863Z,28.67
2023-02-25T11:08:07.832Z,26.45
2023-02-25T11:10:35.241Z,29.17
2023-02-25T11:13:03.539Z,29.58
2023-02-25T11:15:44.729Z,27.98
2023-02-25T11:18:29.547Z,26.45
2023-02-25T11:20:59.372Z,27.05
2023-02-25T11:23:34.608Z,27.65
2023-02-25T11:26:01.577Z,27.70
2023-02-25T11:28:35.989Z,26.38
2023-02-25T11:31:16.351Z,30.10
2023-02-25T11:34:03.360Z,29.08
2023-02-25T11:36:33.734Z,24.27
2023-02-25T11:39:27.508Z,23.67
2023-02-25T11:41:56.812Z,28.38
2023-02-25T11:44:28.045Z,23.50
2023-02-25T11:50:14.445Z,22.85
2023-02-25T11:52:44.276Z,21.63
2023-02-25T11:55:52.342Z,20.08
2023-02-25T11:58:22.867Z,21.13
2023-02-25T12:01:00.709Z,18.80
2023-02-25T12:03:46.188Z,18.88
2023-02-25T12:06:33.548Z,19.10
2023-02-25T12:09:28.403Z,17.77
2023-02-25T12:12:16.043Z,17.02
2023-02-25T12:15:15.127Z,17.88
2023-02-25T12:20:45.019Z,16.67
2023-02-25T12:23:11.381Z,18.95
2023-02-25T12:26:12.872Z,16.83
2023-02-25T12:31:43.265Z,18.08
2023-02-25T12:34:31.647Z,14.75
2023-02-25T12:37:29.152Z,15.40
2023-02-25T12:40:40.853Z,16.83
2023-02-25T12:43:26.040Z,15.52
2023-02-25T12:46:10.954Z,17.48
2023-02-25T12:49:10.907Z,15.35
2023-02-25T12:51:59.156Z,16.35
2023-02-25T12:54:49.856Z,14.90
2023-02-25T12:57:56.056Z,16.55
2023-02-25T13:00:25.186Z,14.80
2023-02-25T13:03:15.410Z,16.95
2023-02-25T13:06:00.351Z,15.95
2023-02-25T13:09:00.915Z,15.70
2023-02-25T13:12:07.307Z,17.77
2023-02-25T13:14:56.717Z,18.80
2023-02-25T13:17:35.562Z,20.15
2023-02-25T13:20:20.539Z,19.13
2023-02-25T13:23:11.345Z,20.38
2023-02-25T13:26:00.365Z,16.77
2023-02-25T13:28:55.006Z,20.27
2023-02-25T13:31:36.538Z,18.17
2023-02-25T13:34:09.144Z,19.55
2023-02-25T13:37:13.208Z,20.73
2023-02-25T13:39:39.566Z,18.25
2023-02-25T13:42:27.421Z,18.98
2023-02-25T13:45:26.701Z,22.25
2023-02-25T13:48:17.143Z,20.13
2023-02-25T13:51:08.469Z,19.95
2023-02-25T13:56:37.266Z,22.27
2023-02-25T13:59:11.267Z,22.13
2023-02-25T14:01:37.734Z,18.45
2023-02-25T14:04:35.380Z,21.70
2023-02-25T14:07:20.633Z,17.13
2023-02-25T14:10:11.526Z,16.50
2023-02-25T14:13:16.157Z,18.20
2023-02-25T14:15:49.746Z,15.55
2023-02-25T14:18:26.357Z,15.82
2023-02-25T14:21:23.895Z,17.15
2023-02-25T14:24:04.596Z,14.77
2023-02-25T14:26:53.563Z,14.88
2023-02-25T14:29:33.916Z,15.18
2023-02-25T14:32:28.402Z,14.25
2023-02-25T14:35:22.808Z,13.45
2023-02-25T14:38:11.407Z,13.85
2023-02-25T14:40:43.885Z,12.68
2023-02-25T14:43:31.430Z,11.95
2023-02-25T14:46:10.323Z,11.45
2023-02-25T14:49:00.183Z,14.18
2023-02-25T14:51:49.374Z,13.02
2023-02-25T14:54:37.957Z,16.27
2023-02-25T14:57:45.823Z,14.23
2023-02-25T15:00:41.673Z,13.55
2023-02-25T15:03:34.501Z,13.02
2023-02-25T15:06:17.507Z,12.38
2023-02-25T15:09:16.208Z,14.43
2023-02-25T15:11:50.229Z,13.50
2023-02-25T15:14:34.763Z,12.02
2023-02-25T15:17:16.418Z,11.73
2023-02-25T15:20:03.445Z,13.35
2023-02-25T15:22:30.943Z,13.18
2023-02-25T15:25:23.565Z,12.38
2023-02-25T15:27:59.188Z,13.15
2023-02-25T15:30:27.111Z,12.77
2023-02-25T15:32:56.620Z,14.05
2023-02-25T15:35:43.453Z,14.55
2023-02-25T15:38:21.003Z,13.13
2023-02-25T15:40:50.961Z,14.50
2023-02-25T15:43:17.316Z,13.07
2023-02-25T15:46:06.695Z,15.55
2023-02-25T15:48:35.373Z,14.38
2023-02-25T15:51:03.147Z,16.30
2023-02-25T15:53:48.587Z,14.43
2023-02-25T15:56:16.599Z,13.35
2023-02-25T15:58:51.004Z,14.32
2023-02-25T16:01:42.315Z,16.63
2023-02-25T16:04:40.882Z,14.43
2023-02-25T16:07:08.326Z,15.18
2023-02-25T16:09:39.876Z,16.20
2023-02-25T16:12:07.921Z,18.15
2023-02-25T16:14:36.811Z,15.05
2023-02-25T16:17:09.568Z,14.88
2023-02-25T16:19:39.400Z,16.25
2023-02-25T16:22:11.742Z,14.57
2023-02-25T16:24:43.654Z,17.30
2023-02-25T16:27:37.164Z,17.77
2023-02-25T16:30:28.556Z,17.80
2023-02-25T16:33:32.220Z,16.45
2023-02-25T16:36:08.512Z,15.57
2023-02-25T16:38:41.009Z,17.27
2023-02-25T16:41:08.025Z,16.05
2023-02-25T16:43:37.726Z,17.55
2023-02-25T16:46:15.495Z,17.00
2023-02-25T16:48:55.301Z,17.33
2023-02-25T16:51:26.897Z,16.00
2023-02-25T16:54:19.585Z,15.48
2023-02-25T16:56:48.908Z,15.35
2023-02-25T16:59:22.914Z,17.83
2023-02-25T17:02:02.137Z,17.05
2023-02-25T17:04:35.228Z,15.18
2023-02-25T17:07:13.724Z,14.93
2023-02-25T17:09:45.648Z,15.57
2023-02-25T17:12:19.639Z,16.48
2023-02-25T17:14:49.566Z,16.13
2023-02-25T17:17:21.434Z,15.18
2023-02-25T17:19:48.687Z,15.18
2023-02-25T17:22:19.743Z,14.93
2023-02-25T17:24:46.524Z,14.60
2023-02-25T17:27:14.741Z,15.10
2023-02-25T17:29:41.296Z,17.30
2023-02-25T17:32:14.218Z,16.83
2023-02-25T17:34:41.499Z,15.93
2023-02-25T17:37:12.226Z,13.98
2023-02-25T17:39:40.290Z,12.80
2023-02-25T17:42:39.644Z,14.98
2023-02-25T17:45:27.196Z,16.23
2023-02-25T17:47:53.747Z,16.42
2023-02-25T17:50:29.201Z,14.23
2023-02-25T17:52:56.046Z,17.27
2023-02-25T17:55:37.308Z,14.60
2023-02-25T17:58:04.212Z,15.40
2023-02-25T18:00:35.753Z,17.92
2023-02-25T18:03:18.561Z,17.67
2023-02-25T18:05:59.445Z,15.32
2023-02-25T18:08:28.372Z,19.17
2023-02-25T18:11:22.853Z,17.35
2023-02-25T18:13:49.355Z,16.88
2023-02-25T18:16:37.432Z,19.05
2023-02-25T18:19:28.744Z,20.48
2023-02-25T18:21:55.522Z,19.52
2023-02-25T18:24:34.380Z,18.75
2023-02-25T18:27:08.058Z,20.55
2023-02-25T18:29:35.132Z,21.42
2023-02-25T18:32:01.707Z,18.13
2023-02-25T18:34:28.199Z,18.15
2023-02-25T18:36:54.686Z,18.63
2023-02-25T18:39:23.609Z,17.13
2023-02-25T18:41:50.150Z,19.10
2023-02-25T18:44:16.632Z,18.85
2023-02-25T18:46:43.072Z,23.00
2023-02-25T18:49:09.663Z,21.75
2023-02-25T18:51:36.275Z,21.73
2023-02-25T18:54:02.688Z,21.60
2023-02-25T18:56:29.094Z,19.75
2023-02-25T18:58:57.404Z,17.63
2023-02-25T19:01:31.081Z,14.80
2023-02-25T19:04:00.009Z,22.10
2023-02-25T19:06:28.351Z,20.17
2023-02-25T19:08:54.839Z,18.60
2023-02-25T19:11:24.590Z,17.55
2023-02-25T19:13:52.294Z,17.25
2023-02-25T19:16:19.283Z,17.30
2023-02-25T19:18:47.283Z,17.30
2023-02-25T19:21:16.776Z,19.50
2023-02-25T19:23:44.141Z,20.10
2023-02-25T19:26:10.921Z,16.73
2023-02-25T19:28:37.402Z,17.88
2023-02-25T19:31:06.004Z,18.65
2023-02-25T19:33:33.100Z,17.45
2023-02-25T19:36:00.257Z,19.77
2023-02-25T19:38:26.686Z,21.38
2023-02-25T19:40:54.047Z,25.83
2023-02-25T19:43:20.527Z,32.78
2023-02-25T19:45:47.189Z,29.35
2023-02-25T19:48:13.608Z,21.65
2023-02-25T19:50:41.341Z,29.50
2023-02-25T19:53:08.537Z,26.45
2023-02-25T19:55:35.283Z,24.80
2023-02-25T19:58:02.124Z,25.92
2023-02-25T20:00:28.568Z,31.13
2023-02-25T20:02:56.112Z,30.98
2023-02-25T20:05:23.633Z,29.17
2023-02-25T20:07:50.793Z,29.33
2023-02-25T20:10:17.650Z,22.08
2023-02-25T20:12:45.871Z,23.08
2023-02-25T20:15:13.934Z,21.15
2023-02-25T20:17:42.096Z,22.98
2023-02-25T20:20:09.354Z,20.20
2023-02-25T20:22:36.897Z,20.73
2023-02-25T20:25:04.204Z,22.45
2023-02-25T20:27:30.645Z,23.42
2023-02-25T20:29:57.158Z,19.45
2023-02-25T20:32:23.882Z,23.98
2023-02-25T20:34:50.515Z,19.63
2023-02-25T20:37:22.616Z,20.88
2023-02-25T20:39:55.547Z,21.42
2023-02-25T20:42:25.280Z,19.33
2023-02-25T20:44:52.700Z,21.40
2023-02-25T20:47:28.161Z,21.58
2023-02-25T20:49:55.478Z,21.88
2023-02-25T20:52:23.492Z,18.67
2023-02-25T20:54:50.058Z,19.95
2023-02-25T20:57:21.075Z,20.38
2023-02-25T20:59:48.316Z,19.30
2023-02-25T21:02:16.345Z,17.42
2023-02-25T21:04:44.166Z,19.13
2023-02-25T21:07:11.530Z,20.50
2023-02-25T21:09:38.370Z,18.42
2023-02-25T21:12:05.883Z,19.63
2023-02-25T21:14:32.434Z,17.60
2023-02-25T21:16:58.903Z,19.58
2023-02-25T21:19:28.021Z,19.50
2023-02-25T21:21:55.720Z,20.95
2023-02-25T21:24:22.890Z,20.98
2023-02-25T21:26:49.606Z,19.73
2023-02-25T21:29:16.161Z,20.27
2023-02-25T21:31:42.800Z,17.77
2023-02-25T21:34:12.714Z,20.35
2023-02-25T21:36:40.038Z,20.40
2023-02-25T21:39:06.959Z,19.90
2023-02-25T21:41:33.565Z,19.23
2023-02-25T21:44:00.145Z,20.27
2023-02-25T21:46:26.968Z,18.77
2023-02-25T21:48:55.950Z,21.42
2023-02-25T21:51:24.811Z,21.40
2023-02-25T21:54:01.184Z,21.08
2023-02-25T21:56:29.480Z,22.17
2023-02-25T21:59:01.471Z,21.00
2023-02-25T22:01:31.196Z,22.48
2023-02-25T22:03:58.355Z,20.13
2023-02-25T22:06:26.003Z,22.70
2023-02-25T22:08:53.869Z,22.52
2023-02-25T22:11:32.431Z,23.27
2023-02-25T22:14:00.772Z,24.10
2023-02-25T22:16:28.299Z,20.88
2023-02-25T22:18:56.051Z,21.08
2023-02-25T22:21:25.840Z,24.00
2023-02-25T22:23:54.667Z,23.65
2023-02-25T22:26:24.335Z,22.73
2023-02-25T22:28:55.217Z,23.35
2023-02-25T22:31:22.497Z,22.17
2023-02-25T22:33:49.085Z,23.40
2023-02-25T22:36:17.249Z,23.73
2023-02-25T22:38:46.460Z,22.02
2023-02-25T22:41:15.704Z,21.98
2023-02-25T22:43:42.474Z,23.33
2023-02-25T22:46:14.549Z,24.38
2023-02-25T22:48:42.571Z,21.33
2023-02-25T22:51:09.947Z,24.38
2023-02-25T22:53:40.694Z,24.90
2023-02-25T22:56:09.509Z,23.73
2023-02-25T22:58:38.921Z,22.27
2023-02-25T23:01:06.407Z,23.00
2023-02-25T23:03:32.937Z,24.05
2023-02-25T23:05:59.450Z,24.20
2023-02-25T23:08:26.415Z,22.83
2023-02-25T23:10:53.241Z,22.80
2023-02-25T23:13:19.875Z,24.10
2023-02-25T23:15:47.733Z,21.63
2023-02-25T23:18:15.892Z,23.70
2023-02-25T23:20:43.144Z,22.02
2023-02-25T23:23:09.679Z,21.95
2023-02-25T23:25:40.007Z,22.90
2023-02-25T23:28:08.626Z,23.50
2023-02-25T23:30:38.732Z,22.00
2023-02-25T23:33:05.889Z,23.10
2023-02-25T23:35:33.414Z,24.15
2023-02-25T23:38:00.651Z,25.85
2023-02-25T23:40:27.189Z,23.08
2023-02-25T23:42:53.648Z,21.92
2023-02-25T23:45:20.077Z,22.98
2023-02-25T23:47:46.555Z,24.20
2023-02-25T23:50:18.084Z,25.38
2023-02-25T23:52:45.798Z,23.33
2023-02-25T23:55:13.621Z,24.05
2023-02-25T23:57:40.281Z,23.63
